Time;durP1;ratioP1;P1;durP2;ratioP2;P2;SDS_P1;SDS_P2;PMS_P1;PMS_P2;Temp;Humidity;BMP_temperature;BMP_pressure;BME280_temperature;BME280_humidity;BME280_pressure;Samples;Min_cycle;Max_cycle;Signal;HPM_P1;HPM_P2
2023/09/05 00:00:11;;;;;;;8.05;3.70;;;20.80;69.50;;;;;;5027323;28;20067;-68
2023/09/05 00:02:40;;;;;;;7.00;3.60;;;20.80;69.60;;;;;;5028837;28;20060;-69
2023/09/05 00:05:07;;;;;;;6.65;3.17;;;20.80;69.70;;;;;;5030100;28;20116;-69
2023/09/05 00:07:38;;;;;;;6.10;3.00;;;20.70;69.70;;;;;;5030166;28;20034;-69
2023/09/05 00:10:05;;;;;;;7.87;3.47;;;20.70;69.60;;;;;;5027581;28;20025;-68
2023/09/05 00:12:31;;;;;;;5.88;3.33;;;20.70;69.60;;;;;;5028677;28;20605;-68
2023/09/05 00:14:58;;;;;;;6.20;3.15;;;20.70;69.60;;;;;;5037748;28;20013;-68
2023/09/05 00:17:24;;;;;;;6.45;3.03;;;20.70;69.60;;;;;;5028339;28;20038;-68
2023/09/05 00:19:51;;;;;;;7.07;3.10;;;20.70;69.60;;;;;;5027213;28;20095;-68
2023/09/05 00:22:19;;;;;;;7.50;3.10;;;20.70;69.60;;;;;;5024343;28;20132;-68
2023/09/05 00:24:45;;;;;;;5.70;3.30;;;20.60;69.60;;;;;;5026620;28;20033;-68
2023/09/05 00:27:11;;;;;;;6.50;3.60;;;20.60;69.80;;;;;;5029005;28;20045;-68
2023/09/05 00:29:38;;;;;;;8.27;3.70;;;20.60;69.70;;;;;;5012091;28;20021;-68
2023/09/05 00:32:04;;;;;;;6.50;3.20;;;20.60;69.70;;;;;;5028441;28;20028;-69
2023/09/05 00:34:36;;;;;;;6.15;3.38;;;20.60;69.60;;;;;;5030544;28;20017;-68
2023/09/05 00:37:03;;;;;;;;;;;20.60;69.50;;;;;;5031481;28;20052;-68
2023/09/05 00:39:29;;;;;;;6.07;2.97;;;20.60;69.50;;;;;;5027542;28;20011;-68
2023/09/05 00:41:56;;;;;;;8.45;3.10;;;20.60;69.40;;;;;;5028944;28;20070;-68
2023/09/05 00:44:26;;;;;;;6.57;2.80;;;20.70;69.30;;;;;;5055605;28;20032;-68
2023/09/05 00:46:54;;;;;;;5.70;2.85;;;20.70;69.30;;;;;;5030116;28;20033;-68
2023/09/05 00:49:23;;;;;;;7.50;3.17;;;20.70;69.20;;;;;;5056176;28;20113;-68
2023/09/05 00:51:52;;;;;;;6.35;3.00;;;20.70;69.00;;;;;;5034317;28;20018;-69
2023/09/05 00:54:18;;;;;;;7.70;3.33;;;20.60;68.70;;;;;;5030435;28;20030;-69
2023/09/05 00:56:45;;;;;;;7.15;3.03;;;20.70;68.50;;;;;;5028368;28;20045;-68
2023/09/05 00:59:12;;;;;;;7.13;3.50;;;20.70;68.30;;;;;;5044061;28;20084;-69
2023/09/05 01:01:38;;;;;;;8.18;3.40;;;20.70;68.20;;;;;;5022623;28;20102;-68
2023/09/05 01:04:04;;;;;;;8.15;3.00;;;20.70;68.40;;;;;;5025957;28;20147;-68
2023/09/05 01:06:53;;;;;;;6.15;2.90;;;20.60;68.40;;;;;;5031790;28;20091;-69
2023/09/05 01:09:29;;;;;;;6.90;3.05;;;20.60;68.50;;;;;;5030057;28;20041;-69
2023/09/05 01:11:56;;;;;;;6.63;3.28;;;20.60;68.80;;;;;;5029631;28;20465;-68
2023/09/05 01:18:03;;;;;;;7.27;3.43;;;20.50;68.70;;;;;;5039953;28;20048;-69
2023/09/05 01:20:46;;;;;;;6.93;3.22;;;20.50;68.80;;;;;;5016903;28;20020;-68
2023/09/05 01:23:19;;;;;;;5.97;3.25;;;20.50;68.60;;;;;;5030693;28;20025;-68
2023/09/05 01:25:45;;;;;;;6.65;3.20;;;20.40;68.60;;;;;;5034935;28;20179;-68
2023/09/05 01:28:13;;;;;;;6.18;3.20;;;20.40;68.40;;;;;;5034313;28;20025;-68
2023/09/05 01:30:41;;;;;;;7.25;3.10;;;20.40;68.20;;;;;;5031095;28;20013;-69
2023/09/05 01:33:06;;;;;;;5.43;3.00;;;20.40;68.10;;;;;;5039958;28;20050;-68
2023/09/05 01:35:32;;;;;;;6.25;3.15;;;20.40;68.10;;;;;;5008768;28;20446;-68
2023/09/05 01:37:58;;;;;;;6.60;3.22;;;20.40;68.10;;;;;;5033732;28;20037;-69
2023/09/05 01:40:24;;;;;;;6.90;3.35;;;20.40;68.30;;;;;;5031167;28;20041;-68
2023/09/05 01:42:49;;;;;;;9.07;3.67;;;20.40;68.50;;;;;;5040142;28;20119;-68
2023/09/05 01:45:15;;;;;;;6.30;3.30;;;20.30;68.40;;;;;;5035660;28;20462;-69
2023/09/05 01:47:41;;;;;;;6.10;3.50;;;20.30;68.40;;;;;;5037449;28;20030;-69
2023/09/05 01:50:07;;;;;;;7.32;4.00;;;20.30;68.30;;;;;;5033717;28;20049;-68
2023/09/05 01:52:33;;;;;;;6.35;3.30;;;20.30;68.20;;;;;;5038971;28;20025;-68
2023/09/05 01:54:58;;;;;;;6.80;3.42;;;20.30;68.40;;;;;;5035354;28;20044;-68
2023/09/05 01:57:26;;;;;;;7.88;3.47;;;20.20;68.40;;;;;;5039807;28;20049;-69
2023/09/05 01:59:52;;;;;;;6.93;3.50;;;20.20;68.60;;;;;;5027240;28;20029;-69
2023/09/05 02:02:18;;;;;;;7.60;3.45;;;20.20;68.60;;;;;;5058898;28;21090;-69
2023/09/05 02:04:43;;;;;;;5.80;3.17;;;20.10;68.60;;;;;;5032617;28;20508;-69
2023/09/05 02:07:09;;;;;;;7.10;3.38;;;20.10;68.60;;;;;;5038908;28;20382;-69
2023/09/05 02:09:35;;;;;;;6.53;3.72;;;20.10;68.80;;;;;;5033559;28;20057;-69
2023/09/05 02:12:01;;;;;;;6.03;3.28;;;20.10;68.80;;;;;;5039292;28;20112;-68
2023/09/05 02:14:27;;;;;;;7.03;3.42;;;20.10;68.90;;;;;;5018023;28;20029;-68
2023/09/05 02:16:52;;;;;;;7.72;3.90;;;20.10;68.90;;;;;;5037580;28;20045;-68
2023/09/05 02:19:29;;;;;;;7.18;3.65;;;20.00;68.80;;;;;;5013306;28;20124;-68
2023/09/05 02:22:14;;;;;;;7.30;3.72;;;20.00;68.90;;;;;;5046626;28;20037;-69
2023/09/05 02:24:59;;;;;;;6.10;3.30;;;20.00;69.00;;;;;;5047074;28;20132;-68
2023/09/05 02:27:44;;;;;;;7.00;3.45;;;20.00;69.00;;;;;;4995892;28;20033;-69
2023/09/05 02:30:10;;;;;;;6.30;3.25;;;20.00;69.10;;;;;;5012139;28;20042;-68
2023/09/05 02:32:37;;;;;;;7.15;3.35;;;20.00;69.00;;;;;;5011595;28;20070;-68
2023/09/05 02:35:05;;;;;;;6.60;3.55;;;20.00;69.00;;;;;;4995954;28;20057;-68
2023/09/05 02:37:31;;;;;;;6.35;3.22;;;20.00;69.10;;;;;;5011976;28;20084;-69
2023/09/05 02:39:57;;;;;;;7.97;3.83;;;20.00;69.00;;;;;;5013311;28;20065;-69
2023/09/05 02:42:22;;;;;;;6.03;3.20;;;20.00;69.10;;;;;;4994296;28;20109;-68
2023/09/05 02:44:51;;;;;;;7.07;3.38;;;20.00;69.10;;;;;;5012387;28;20088;-68
2023/09/05 02:47:17;;;;;;;7.53;3.38;;;19.90;69.00;;;;;;5012689;28;20141;-69
2023/09/05 02:49:43;;;;;;;6.43;3.60;;;20.00;69.10;;;;;;5012472;28;20040;-68
2023/09/05 02:52:09;;;;;;;6.20;3.20;;;20.00;69.10;;;;;;5010051;28;20455;-69
2023/09/05 02:54:35;;;;;;;7.28;3.33;;;20.00;69.10;;;;;;4995565;28;20208;-68
2023/09/05 02:57:00;;;;;;;6.45;3.13;;;20.00;69.20;;;;;;5013126;28;20048;-68
2023/09/05 02:59:26;;;;;;;6.43;3.20;;;19.90;69.20;;;;;;4994543;28;20410;-68
2023/09/05 03:01:52;;;;;;;6.75;3.28;;;19.90;69.30;;;;;;5009033;28;20038;-69
2023/09/05 03:04:17;;;;;;;7.38;3.67;;;19.90;69.20;;;;;;4990394;28;20072;-69
2023/09/05 03:06:43;;;;;;;6.80;3.20;;;19.90;69.10;;;;;;5064312;28;20185;-68
2023/09/05 03:09:09;;;;;;;6.97;3.67;;;19.90;69.10;;;;;;5043166;28;20017;-69
2023/09/05 03:11:35;;;;;;;6.88;3.45;;;20.00;69.80;;;;;;5036604;28;20167;-68
2023/09/05 03:14:01;;;;;;;7.70;3.47;;;20.00;69.10;;;;;;5033179;28;20029;-69
2023/09/05 03:16:28;;;;;;;6.80;3.47;;;20.00;69.10;;;;;;5028119;28;20545;-68
2023/09/05 03:18:59;;;;;;;6.32;3.22;;;19.90;69.20;;;;;;5047720;28;20354;-68
2023/09/05 03:21:28;;;;;;;6.85;3.03;;;19.90;69.40;;;;;;5036761;28;20037;-68
2023/09/05 03:23:55;;;;;;;6.28;3.17;;;19.90;69.50;;;;;;5030975;28;20400;-68
2023/09/05 03:26:21;;;;;;;6.45;3.47;;;19.90;69.50;;;;;;5031719;28;20458;-68
2023/09/05 03:28:47;;;;;;;6.65;3.47;;;19.90;69.50;;;;;;5028019;28;20029;-69
2023/09/05 03:31:19;;;;;;;6.65;3.10;;;19.90;69.60;;;;;;5022442;28;20104;-68
2023/09/05 03:33:45;;;;;;;7.05;3.38;;;19.90;69.60;;;;;;5034741;28;20180;-69
2023/09/05 03:36:11;;;;;;;7.40;3.90;;;19.90;69.60;;;;;;5033082;28;20446;-69
2023/09/05 03:38:37;;;;;;;8.18;3.92;;;19.90;69.60;;;;;;5035968;28;20036;-68
2023/09/05 03:41:03;;;;;;;7.18;3.47;;;19.80;69.50;;;;;;5038163;28;20451;-68
2023/09/05 03:43:29;;;;;;;8.05;3.88;;;19.80;69.60;;;;;;5021963;28;20026;-69
2023/09/05 03:45:55;;;;;;;8.10;3.47;;;19.80;69.70;;;;;;5022524;28;20419;-69
2023/09/05 03:48:20;;;;;;;6.93;3.50;;;19.80;69.80;;;;;;5035709;28;20108;-68
2023/09/05 03:50:46;;;;;;;7.10;3.65;;;19.80;69.90;;;;;;5040972;28;20400;-68
2023/09/05 03:53:12;;;;;;;7.70;3.78;;;19.80;70.00;;;;;;5035920;28;20105;-68
2023/09/05 03:55:38;;;;;;;7.47;4.60;;;19.80;69.90;;;;;;5028454;28;20081;-68
2023/09/05 03:58:04;;;;;;;7.10;3.72;;;19.70;69.80;;;;;;5029989;28;20037;-69
2023/09/05 04:00:34;;;;;;;7.43;3.83;;;19.70;69.80;;;;;;5036114;28;20051;-68
2023/09/05 04:03:03;;;;;;;7.82;4.20;;;19.70;69.80;;;;;;5025278;28;20112;-68
2023/09/05 04:05:29;;;;;;;8.75;3.85;;;19.70;69.80;;;;;;5027416;28;20366;-68
2023/09/05 04:07:55;;;;;;;7.18;3.80;;;19.70;69.90;;;;;;5033640;28;20358;-68
2023/09/05 04:10:22;;;;;;;7.43;4.13;;;19.70;70.00;;;;;;5036693;28;20104;-68
2023/09/05 04:12:50;;;;;;;8.23;4.18;;;19.70;70.00;;;;;;5018687;28;20048;-68
2023/09/05 04:15:20;;;;;;;6.55;3.50;;;19.60;70.10;;;;;;5034289;28;20037;-68
2023/09/05 04:17:47;;;;;;;7.05;3.88;;;19.60;70.30;;;;;;5033564;28;20069;-68
2023/09/05 04:20:13;;;;;;;8.52;4.20;;;19.60;70.30;;;;;;5034246;28;20383;-68
2023/09/05 04:22:39;;;;;;;7.40;3.85;;;19.60;70.40;;;;;;5028487;28;20022;-68
2023/09/05 04:25:07;;;;;;;7.10;4.00;;;19.60;70.50;;;;;;5026947;28;20029;-69
2023/09/05 04:27:33;;;;;;;8.10;3.70;;;19.60;70.60;;;;;;5030496;28;20116;-68
2023/09/05 04:29:59;;;;;;;8.00;4.00;;;19.60;70.50;;;;;;5035788;28;20017;-68
2023/09/05 04:32:28;;;;;;;8.48;4.22;;;19.50;70.50;;;;;;5044859;28;20033;-68
2023/09/05 04:34:55;;;;;;;8.02;4.68;;;19.50;70.50;;;;;;5030233;28;20071;-68
2023/09/05 04:37:21;;;;;;;7.03;3.78;;;19.50;70.50;;;;;;5035069;28;20048;-68
2023/09/05 04:39:50;;;;;;;8.98;4.15;;;19.50;70.60;;;;;;5038590;28;20069;-68
2023/09/05 04:42:16;;;;;;;8.65;4.22;;;19.50;70.60;;;;;;5038225;28;20359;-69
2023/09/05 04:44:41;;;;;;;8.23;4.50;;;19.50;70.60;;;;;;5036149;28;20102;-69
2023/09/05 04:47:24;;;;;;;7.90;4.47;;;19.50;70.50;;;;;;5034978;28;20026;-69
2023/09/05 04:49:54;;;;;;;8.15;4.13;;;19.50;70.40;;;;;;5032486;28;20017;-69
2023/09/05 04:52:23;;;;;;;7.13;3.85;;;19.40;70.30;;;;;;5035036;28;20022;-68
2023/09/05 04:54:49;;;;;;;8.23;4.10;;;19.50;70.40;;;;;;5034623;28;20034;-68
2023/09/05 04:57:16;;;;;;;7.63;4.32;;;19.50;70.40;;;;;;5034627;28;20053;-68
2023/09/05 04:59:47;;;;;;;8.20;4.22;;;19.50;70.30;;;;;;5034706;28;20029;-69
2023/09/05 05:02:16;;;;;;;8.90;4.32;;;19.50;70.30;;;;;;5034646;28;20044;-68
2023/09/05 05:04:45;;;;;;;8.50;4.50;;;19.50;70.30;;;;;;5033752;28;20094;-69
2023/09/05 05:07:11;;;;;;;7.43;4.40;;;19.40;70.10;;;;;;5051295;28;20021;-70
2023/09/05 05:09:40;;;;;;;8.18;4.72;;;19.50;70.20;;;;;;5019005;28;20036;-69
2023/09/05 05:12:06;;;;;;;8.65;4.57;;;19.50;70.20;;;;;;5036997;28;20426;-70
2023/09/05 05:14:32;;;;;;;9.15;4.50;;;19.50;70.20;;;;;;5040489;28;20366;-69
2023/09/05 05:16:58;;;;;;;7.18;4.22;;;19.50;70.20;;;;;;5033646;28;20025;-69
2023/09/05 05:19:24;;;;;;;8.45;4.10;;;19.50;70.10;;;;;;5051926;28;20107;-69
2023/09/05 05:21:51;;;;;;;8.80;4.18;;;19.50;70.20;;;;;;5031096;28;20026;-69
2023/09/05 05:24:17;;;;;;;7.75;4.13;;;19.50;70.20;;;;;;5023153;28;20255;-69
2023/09/05 05:26:43;;;;;;;7.80;4.50;;;19.50;70.10;;;;;;5022430;28;20021;-69
2023/09/05 05:29:09;;;;;;;7.97;4.65;;;19.50;70.00;;;;;;5034893;28;20037;-70
2023/09/05 05:31:35;;;;;;;7.82;4.28;;;19.50;70.30;;;;;;5035442;28;20034;-69
2023/09/05 05:34:01;;;;;;;7.55;4.10;;;19.50;70.00;;;;;;5036159;28;20075;-69
2023/09/05 05:36:29;;;;;;;6.68;3.88;;;19.50;69.90;;;;;;5017914;28;20033;-69
2023/09/05 05:38:58;;;;;;;7.88;4.35;;;19.50;69.80;;;;;;5033243;28;20064;-70
2023/09/05 05:41:24;;;;;;;9.20;4.15;;;19.50;69.80;;;;;;5034599;28;20053;-69
2023/09/05 05:43:50;;;;;;;7.32;4.40;;;19.60;69.90;;;;;;5034818;28;20026;-69
2023/09/05 05:46:17;;;;;;;7.65;4.32;;;19.60;69.90;;;;;;5026330;28;20114;-70
2023/09/05 05:48:44;;;;;;;8.00;4.18;;;19.60;69.90;;;;;;5032952;28;20030;-69
2023/09/05 05:51:10;;;;;;;7.53;4.10;;;19.60;70.00;;;;;;5016610;28;20057;-69
2023/09/05 05:53:36;;;;;;;7.15;4.00;;;19.60;70.00;;;;;;5035687;28;20132;-69
2023/09/05 05:56:04;;;;;;;8.13;3.38;;;19.60;70.10;;;;;;5032278;28;20128;-70
2023/09/05 05:58:31;;;;;;;8.40;4.05;;;19.60;70.20;;;;;;5031706;28;20030;-69
2023/09/05 06:00:57;;;;;;;7.47;4.25;;;19.70;70.20;;;;;;5030375;28;20124;-69
2023/09/05 06:03:23;;;;;;;7.07;3.63;;;19.70;70.30;;;;;;5036314;28;20033;-70
2023/09/05 06:05:50;;;;;;;7.68;3.70;;;19.70;70.50;;;;;;5014974;28;20358;-70
2023/09/05 06:08:16;;;;;;;8.30;3.80;;;19.70;70.60;;;;;;5030334;28;20033;-72
2023/09/05 06:10:43;;;;;;;8.10;4.47;;;19.80;70.50;;;;;;5024027;28;20036;-72
2023/09/05 06:13:09;;;;;;;6.75;3.63;;;19.90;70.40;;;;;;5037453;28;20267;-70
2023/09/05 06:15:35;;;;;;;8.00;3.65;;;19.90;70.20;;;;;;5032979;28;20080;-69
2023/09/05 06:18:02;;;;;;;6.95;3.67;;;20.00;69.90;;;;;;5048468;28;20022;-67
2023/09/05 06:20:34;;;;;;;7.20;3.60;;;20.10;69.60;;;;;;5019878;28;20450;-66
2023/09/05 06:23:04;;;;;;;8.45;3.72;;;20.20;69.40;;;;;;5032912;28;20025;-67
2023/09/05 06:25:30;;;;;;;6.70;3.50;;;20.80;68.40;;;;;;5047457;28;20443;-66
2023/09/05 06:27:56;;;;;;;6.68;3.47;;;21.70;66.70;;;;;;5026454;28;20038;-67
2023/09/05 06:30:22;;;;;;;6.78;3.40;;;22.50;65.00;;;;;;5031109;28;20424;-67
2023/09/05 06:32:48;;;;;;;7.88;3.25;;;23.20;63.50;;;;;;5031322;28;20504;-67
2023/09/05 06:35:14;;;;;;;5.75;3.03;;;23.80;61.90;;;;;;5037730;28;21518;-67
2023/09/05 06:37:40;;;;;;;7.20;2.90;;;24.30;60.50;;;;;;5033981;28;20029;-66
2023/09/05 06:40:15;;;;;;;6.10;3.10;;;24.70;59.30;;;;;;5026890;28;20136;-68
2023/09/05 06:42:41;;;;;;;6.70;3.10;;;25.00;58.40;;;;;;5047266;28;20048;-64
2023/09/05 06:45:08;;;;;;;9.90;3.35;;;25.10;57.80;;;;;;5028927;28;20032;-64
2023/09/05 06:47:34;;;;;;;7.68;3.17;;;25.00;57.80;;;;;;5031078;28;20025;-64
2023/09/05 06:50:00;;;;;;;6.43;3.17;;;24.80;58.00;;;;;;5029495;28;20014;-67
2023/09/05 06:52:26;;;;;;;7.13;2.90;;;24.50;58.30;;;;;;5024474;28;20021;-65
2023/09/05 06:54:52;;;;;;;8.00;3.35;;;24.20;58.70;;;;;;5025108;28;20478;-65
2023/09/05 06:57:19;;;;;;;6.22;3.05;;;24.00;59.00;;;;;;5032223;28;20125;-63
2023/09/05 06:59:45;;;;;;;5.90;2.88;;;23.80;59.40;;;;;;5027988;28;20382;-65
2023/09/05 07:02:11;;;;;;;8.73;3.20;;;23.60;59.60;;;;;;5027342;28;20056;-65
2023/09/05 07:04:37;;;;;;;5.82;2.83;;;23.50;59.70;;;;;;5023884;28;20041;-64
2023/09/05 07:07:03;;;;;;;5.72;2.78;;;23.40;59.70;;;;;;5021956;28;20057;-66
2023/09/05 07:09:30;;;;;;;7.30;3.30;;;23.30;59.80;;;;;;5027956;28;20044;-66
2023/09/05 07:11:56;;;;;;;10.25;3.30;;;23.20;59.90;;;;;;5029384;28;20112;-66
2023/09/05 07:14:22;;;;;;;8.07;3.05;;;23.20;60.10;;;;;;5010558;28;20033;-66
2023/09/05 07:16:48;;;;;;;9.93;3.47;;;23.20;60.40;;;;;;5024383;28;20029;-65
2023/09/05 07:19:14;;;;;;;9.65;3.08;;;23.20;60.50;;;;;;5026133;28;20056;-65
2023/09/05 07:21:43;;;;;;;9.20;2.70;;;23.20;60.60;;;;;;5027112;28;20100;-65
2023/09/05 07:24:10;;;;;;;7.20;3.40;;;23.30;60.30;;;;;;5027608;28;20034;-65
2023/09/05 07:26:38;;;;;;;6.95;3.00;;;23.30;60.10;;;;;;5027219;28;20038;-65
2023/09/05 07:29:05;;;;;;;508.95;64.10;;;23.30;60.00;;;;;;5055102;28;20108;-72
2023/09/05 07:31:31;;;;;;;46.60;9.10;;;23.50;60.40;;;;;;5023390;28;20455;-66
2023/09/05 07:34:00;;;;;;;19.67;4.75;;;23.20;61.30;;;;;;5025897;28;20053;-67
2023/09/05 07:36:28;;;;;;;8.25;3.65;;;23.10;61.60;;;;;;5027465;28;20099;-67
2023/09/05 07:38:54;;;;;;;6.93;3.53;;;23.20;61.40;;;;;;5028389;28;20095;-66
2023/09/05 07:41:20;;;;;;;12.63;3.92;;;23.30;61.00;;;;;;5028669;28;20079;-66
2023/09/05 07:43:46;;;;;;;6.60;3.15;;;23.50;60.90;;;;;;5026770;28;20029;-66
2023/09/05 07:46:13;;;;;;;6.97;2.97;;;23.60;60.70;;;;;;5057949;28;20336;-67
2023/09/05 07:48:39;;;;;;;6.70;3.10;;;23.60;60.60;;;;;;5026959;28;20029;-67
2023/09/05 07:51:07;;;;;;;6.65;3.47;;;23.80;60.70;;;;;;5028646;28;20024;-66
2023/09/05 07:53:37;;;;;;;8.13;3.25;;;23.90;60.30;;;;;;5026724;28;20017;-67
2023/09/05 07:56:07;;;;;;;6.45;3.17;;;24.00;60.10;;;;;;5029257;28;20050;-67
2023/09/05 07:58:33;;;;;;;16.17;3.58;;;24.20;59.70;;;;;;5024940;28;20021;-67
2023/09/05 08:00:59;;;;;;;17.08;5.07;;;24.40;59.60;;;;;;5027917;28;20100;-66
2023/09/05 08:03:26;;;;;;;24.98;4.72;;;24.60;59.50;;;;;;5026001;28;20087;-66
2023/09/05 08:05:55;;;;;;;12.18;3.47;;;24.80;59.10;;;;;;5025681;28;20034;-66
2023/09/05 08:08:21;;;;;;;9.48;2.75;;;24.90;58.40;;;;;;5024172;28;20056;-66
2023/09/05 08:10:48;;;;;;;16.02;3.80;;;25.10;58.00;;;;;;5029744;28;20018;-67
2023/09/05 08:13:14;;;;;;;6.30;2.65;;;25.30;57.50;;;;;;5027528;28;20025;-67
2023/09/05 08:15:43;;;;;;;5.38;2.53;;;25.50;56.90;;;;;;5007551;28;20030;-67
2023/09/05 08:18:13;;;;;;;7.22;2.58;;;25.70;56.20;;;;;;5036149;28;20040;-67
2023/09/05 08:20:42;;;;;;;5.63;2.47;;;25.90;55.70;;;;;;5014179;28;20413;-67
2023/09/05 08:23:09;;;;;;;5.03;2.33;;;26.10;55.20;;;;;;5012042;28;20029;-66
2023/09/05 08:25:34;;;;;;;5.45;2.42;;;26.20;54.80;;;;;;5031754;28;20407;-67
2023/09/05 08:28:00;;;;;;;6.25;2.67;;;26.30;54.40;;;;;;5031199;28;20040;-67
2023/09/05 08:30:28;;;;;;;6.18;2.42;;;26.50;54.10;;;;;;5012693;28;20037;-67
2023/09/05 08:32:57;;;;;;;6.78;2.85;;;26.60;53.70;;;;;;5026890;28;20347;-67
2023/09/05 08:35:24;;;;;;;6.95;2.50;;;26.70;53.30;;;;;;5029629;28;20045;-67
2023/09/05 08:37:50;;;;;;;6.50;2.30;;;26.80;53.40;;;;;;5028598;28;20037;-66
2023/09/05 08:40:16;;;;;;;5.15;2.28;;;26.90;53.20;;;;;;5026664;28;20038;-67
2023/09/05 08:42:44;;;;;;;6.38;2.33;;;27.00;53.10;;;;;;5032284;28;20076;-67
2023/09/05 08:45:15;;;;;;;6.18;2.72;;;27.20;53.20;;;;;;5027071;28;20363;-66
2023/09/05 08:47:40;;;;;;;;;;;27.30;53.00;;;;;;5030937;28;20025;-66
2023/09/05 08:50:08;;;;;;;7.00;2.13;;;27.40;53.10;;;;;;5029101;28;19959;-67
2023/09/05 08:52:37;;;;;;;4.88;2.05;;;27.50;52.70;;;;;;5031070;28;20017;-67
2023/09/05 08:55:04;;;;;;;5.93;2.60;;;27.50;52.10;;;;;;5028967;28;20051;-67
2023/09/05 08:57:33;;;;;;;6.03;2.55;;;27.60;52.40;;;;;;5030398;28;20033;-67
2023/09/05 09:00:12;;;;;;;5.38;2.38;;;27.60;52.30;;;;;;5028612;28;20030;-67
2023/09/05 09:02:38;;;;;;;7.22;2.47;;;27.70;52.20;;;;;;5033662;28;20358;-67
2023/09/05 09:05:04;;;;;;;5.40;2.28;;;27.80;52.00;;;;;;5029052;28;20040;-67
2023/09/05 09:07:30;;;;;;;7.38;3.00;;;27.80;51.90;;;;;;5026331;28;20033;-67
2023/09/05 09:10:14;;;;;;;5.28;2.55;;;27.90;52.00;;;;;;5030430;28;20036;-67
2023/09/05 09:12:40;;;;;;;7.55;2.50;;;28.00;51.70;;;;;;5028897;28;20026;-67
2023/09/05 09:15:09;;;;;;;4.00;1.80;;;28.10;51.80;;;;;;5028991;28;20458;-66
2023/09/05 09:17:36;;;;;;;4.68;2.17;;;28.10;51.70;;;;;;5026257;28;20033;-67
2023/09/05 09:20:05;;;;;;;4.93;2.03;;;28.20;51.60;;;;;;5031508;28;20097;-66
2023/09/05 09:22:31;;;;;;;4.93;2.17;;;28.30;51.70;;;;;;5026670;28;20040;-66
2023/09/05 09:24:57;;;;;;;6.55;2.50;;;28.30;51.40;;;;;;5030675;28;20153;-67
2023/09/05 09:27:23;;;;;;;7.38;2.13;;;28.30;51.30;;;;;;5025073;28;20033;-67
2023/09/05 09:29:55;;;;;;;5.82;2.90;;;28.30;51.20;;;;;;5030727;28;20026;-67
2023/09/05 09:32:22;;;;;;;5.28;2.55;;;28.30;51.20;;;;;;5049201;28;20116;-67
2023/09/05 09:34:49;;;;;;;6.05;2.67;;;28.40;51.30;;;;;;5044317;28;20386;-67
2023/09/05 09:37:25;;;;;;;6.53;2.38;;;28.40;51.30;;;;;;5026840;28;20417;-67
2023/09/05 09:40:02;;;;;;;5.57;2.10;;;28.60;51.40;;;;;;5034436;28;20030;-66
2023/09/05 09:42:28;;;;;;;4.60;2.10;;;28.70;51.10;;;;;;5043755;28;20082;-66
2023/09/05 09:44:55;;;;;;;5.43;2.33;;;28.70;50.70;;;;;;5048680;28;20114;-67
2023/09/05 09:47:21;;;;;;;5.00;2.22;;;28.80;50.50;;;;;;5030087;28;20305;-67
2023/09/05 09:49:49;;;;;;;5.25;2.05;;;28.80;50.30;;;;;;5042452;28;20156;-67
2023/09/05 09:52:17;;;;;;;6.57;2.33;;;28.90;50.40;;;;;;5027020;28;20115;-67
2023/09/05 09:54:45;;;;;;;4.93;2.20;;;28.90;50.30;;;;;;5046643;28;20469;-67
2023/09/05 09:57:15;;;;;;;6.28;2.22;;;29.00;50.20;;;;;;5034066;28;20064;-67
2023/09/05 09:59:47;;;;;;;4.43;2.08;;;29.00;50.10;;;;;;5041057;28;20026;-66
2023/09/05 10:02:15;;;;;;;4.68;2.20;;;29.10;49.80;;;;;;5041406;28;20347;-66
2023/09/05 10:04:42;;;;;;;5.10;2.30;;;29.10;49.50;;;;;;5048067;28;20034;-66
2023/09/05 10:07:11;;;;;;;5.40;2.15;;;29.20;49.70;;;;;;5035812;28;20060;-67
2023/09/05 10:09:37;;;;;;;5.15;2.00;;;29.20;49.70;;;;;;5009277;28;20061;-66
2023/09/05 10:12:05;;;;;;;6.30;2.10;;;29.30;49.90;;;;;;5035457;28;20041;-66
2023/09/05 10:14:31;;;;;;;7.88;2.10;;;29.40;50.00;;;;;;5034020;28;20095;-66
2023/09/05 10:17:02;;;;;;;6.30;2.55;;;29.50;49.70;;;;;;5033050;28;20033;-66
2023/09/05 10:19:32;;;;;;;4.38;1.75;;;29.50;49.30;;;;;;5029997;28;20026;-66
2023/09/05 10:21:58;;;;;;;7.05;2.35;;;29.60;49.10;;;;;;5033812;28;20017;-66
2023/09/05 10:24:32;;;;;;;7.43;2.25;;;29.70;49.00;;;;;;5029760;28;20035;-67
2023/09/05 10:26:58;;;;;;;4.93;1.73;;;29.70;48.60;;;;;;5056045;28;20026;-67
2023/09/05 10:29:34;;;;;;;5.88;2.10;;;29.70;48.60;;;;;;5032467;28;20035;-66
2023/09/05 10:32:01;;;;;;;4.13;1.73;;;29.80;48.30;;;;;;5050409;28;20048;-67
2023/09/05 10:35:03;;;;;;;4.72;1.80;;;29.80;48.10;;;;;;5032723;28;20493;-67
2023/09/05 10:37:44;;;;;;;4.05;1.90;;;29.90;48.10;;;;;;5032602;28;20037;-67
2023/09/05 10:40:10;;;;;;;4.60;1.95;;;29.90;47.70;;;;;;5023204;28;20091;-67
2023/09/05 10:42:56;;;;;;;5.13;1.80;;;30.00;48.10;;;;;;5034392;28;20030;-67
2023/09/05 10:45:22;;;;;;;4.43;1.80;;;30.00;47.90;;;;;;5030473;28;20041;-67
2023/09/05 10:47:53;;;;;;;4.82;2.05;;;30.10;48.00;;;;;;5033834;28;20033;-67
2023/09/05 10:50:21;;;;;;;5.63;1.85;;;30.20;47.70;;;;;;5033851;28;20468;-67
2023/09/05 10:52:50;;;;;;;8.20;2.17;;;30.20;47.60;;;;;;5033719;28;20037;-67
2023/09/05 10:55:29;;;;;;;3.95;1.75;;;30.20;47.50;;;;;;5029307;28;20124;-67
2023/09/05 10:57:59;;;;;;;5.47;2.35;;;30.20;47.40;;;;;;5033188;28;20049;-67
2023/09/05 11:00:28;;;;;;;4.45;1.77;;;30.30;47.50;;;;;;5034722;28;20037;-67
2023/09/05 11:03:09;;;;;;;5.43;2.15;;;30.30;47.60;;;;;;5034876;28;20080;-67
2023/09/05 11:05:36;;;;;;;3.35;1.70;;;30.30;47.60;;;;;;5019882;28;20042;-68
2023/09/05 11:08:01;;;;;;;4.40;1.80;;;30.40;47.60;;;;;;5044355;28;20503;-68
2023/09/05 11:10:29;;;;;;;3.90;1.70;;;30.40;47.30;;;;;;5036092;28;20119;-68
2023/09/05 11:12:55;;;;;;;5.55;1.75;;;30.40;46.80;;;;;;5036257;28;20029;-68
2023/09/05 11:15:32;;;;;;;4.55;1.88;;;30.40;46.30;;;;;;5031130;28;20032;-68
2023/09/05 11:18:06;;;;;;;4.30;1.80;;;30.40;46.50;;;;;;5031719;28;20120;-68
2023/09/05 11:20:50;;;;;;;4.22;1.80;;;30.40;46.60;;;;;;5024754;28;20030;-68
2023/09/05 11:23:21;;;;;;;5.10;2.00;;;30.40;46.20;;;;;;5053484;28;20033;-68
2023/09/05 11:25:48;;;;;;;4.18;1.67;;;30.40;46.50;;;;;;5019590;28;20419;-68
2023/09/05 11:28:15;;;;;;;5.78;2.00;;;30.40;46.40;;;;;;5029888;28;20112;-68
2023/09/05 11:30:44;;;;;;;3.88;1.73;;;30.40;46.30;;;;;;5031106;28;20116;-68
2023/09/05 11:33:13;;;;;;;3.67;1.73;;;30.40;46.30;;;;;;5034436;28;20350;-68
2023/09/05 11:35:49;;;;;;;4.43;1.70;;;30.40;46.20;;;;;;5049787;28;20046;-67
2023/09/05 11:38:20;;;;;;;4.70;1.85;;;30.40;45.90;;;;;;5032207;28;20064;-68
2023/09/05 11:40:57;;;;;;;4.70;1.95;;;30.40;46.10;;;;;;5038965;28;20049;-68
2023/09/05 11:43:23;;;;;;;3.85;1.65;;;30.40;46.40;;;;;;5036157;28;20083;-68
2023/09/05 11:45:55;;;;;;;5.32;1.70;;;30.30;46.80;;;;;;5034978;28;20022;-67
2023/09/05 11:48:23;;;;;;;3.90;1.88;;;30.40;46.60;;;;;;5036601;28;20043;-68
2023/09/05 11:50:49;;;;;;;4.35;1.95;;;30.40;46.50;;;;;;5043650;28;20037;-68
2023/09/05 11:53:19;;;;;;;3.60;1.67;;;30.40;46.70;;;;;;5036475;28;20120;-68
2023/09/05 11:55:46;;;;;;;3.58;1.63;;;30.40;46.70;;;;;;5049977;28;20070;-68
2023/09/05 11:58:15;;;;;;;4.18;1.63;;;30.30;46.70;;;;;;5034912;28;20025;-68
2023/09/05 12:00:45;;;;;;;4.10;1.85;;;30.30;47.00;;;;;;5055904;28;20100;-67
2023/09/05 12:03:15;;;;;;;4.28;1.60;;;30.20;46.80;;;;;;5033353;28;20029;-67
2023/09/05 12:05:44;;;;;;;5.90;1.80;;;30.20;46.70;;;;;;5038358;28;20032;-68
2023/09/05 12:08:09;;;;;;;5.88;2.03;;;30.20;46.50;;;;;;5021141;28;20086;-67
2023/09/05 12:10:51;;;;;;;4.72;1.88;;;30.20;46.60;;;;;;5049055;28;20041;-67
2023/09/05 12:13:34;;;;;;;3.63;1.63;;;30.20;46.50;;;;;;5035624;28;20125;-67
2023/09/05 12:15:59;;;;;;;4.25;1.73;;;30.10;47.00;;;;;;5036577;28;20021;-67
2023/09/05 12:18:25;;;;;;;4.35;1.42;;;30.00;46.90;;;;;;5040999;28;20470;-67
2023/09/05 12:20:56;;;;;;;4.47;1.85;;;29.90;46.60;;;;;;5039158;28;20029;-67
2023/09/05 12:23:29;;;;;;;3.45;1.58;;;29.90;46.30;;;;;;5019273;28;20040;-67
2023/09/05 12:25:55;;;;;;;5.05;1.73;;;29.80;46.20;;;;;;5061503;28;20033;-67
2023/09/05 12:28:22;;;;;;;4.28;1.85;;;29.70;46.50;;;;;;5020037;28;20022;-67
2023/09/05 12:30:49;;;;;;;4.72;1.63;;;29.70;46.70;;;;;;5046639;28;20057;-67
2023/09/05 12:33:15;;;;;;;3.92;1.92;;;29.60;46.80;;;;;;5037686;28;20362;-67
2023/09/05 12:35:43;;;;;;;3.63;1.60;;;29.60;46.60;;;;;;5030686;28;20021;-68
2023/09/05 12:38:10;;;;;;;3.65;1.52;;;29.60;46.80;;;;;;5024546;28;20449;-67
2023/09/05 12:40:37;;;;;;;4.10;1.60;;;29.50;46.90;;;;;;5028374;28;20028;-67
2023/09/05 12:43:04;;;;;;;3.72;1.77;;;29.50;47.00;;;;;;5026938;28;20420;-67
2023/09/05 12:45:31;;;;;;;3.03;1.40;;;29.40;46.90;;;;;;5038414;28;20030;-67
2023/09/05 12:47:57;;;;;;;3.92;1.52;;;29.40;47.10;;;;;;5028733;28;20075;-67
2023/09/05 12:50:29;;;;;;;3.13;1.55;;;29.30;47.10;;;;;;5028970;28;20038;-67
2023/09/05 12:52:55;;;;;;;3.72;1.40;;;29.30;47.00;;;;;;5029210;28;20355;-67
2023/09/05 12:55:21;;;;;;;3.35;1.55;;;29.20;46.90;;;;;;5031227;28;20129;-64